createdAt,value
2019-03-16T00:00:03.974Z,4.88
2019-03-16T00:01:03.925Z,4.79
2019-03-16T00:02:03.967Z,4.84
2019-03-16T00:03:03.921Z,4.88
2019-03-16T00:04:03.900Z,4.76
2019-03-16T00:05:03.619Z,4.85
2019-03-16T00:06:03.912Z,4.85
2019-03-16T00:07:03.948Z,4.79
2019-03-16T00:08:03.851Z,4.87
2019-03-16T00:09:03.815Z,4.78
2019-03-16T00:10:03.825Z,4.83
2019-03-16T00:11:03.819Z,4.87
2019-03-16T00:12:04.222Z,4.83
2019-03-16T00:13:03.804Z,4.79
2019-03-16T00:14:03.237Z,4.88
2019-03-16T00:15:03.720Z,4.84
2019-03-16T00:16:03.700Z,4.83
2019-03-16T00:17:03.687Z,4.74
2019-03-16T00:18:03.660Z,4.88
2019-03-16T00:19:03.655Z,4.74
2019-03-16T00:20:03.657Z,4.76
2019-03-16T00:21:03.618Z,4.79
2019-03-16T00:22:03.606Z,4.75
2019-03-16T00:23:03.451Z,4.71
2019-03-16T00:24:03.652Z,4.72
2019-03-16T00:25:03.666Z,4.74
2019-03-16T00:26:03.543Z,4.69
2019-03-16T00:27:03.525Z,4.74
2019-03-16T00:28:03.270Z,4.72
2019-03-16T00:29:03.488Z,4.74
2019-03-16T00:30:03.230Z,4.76
2019-03-16T00:31:03.459Z,4.69
2019-03-16T00:32:15.361Z,4.72
2019-03-16T00:33:03.428Z,4.76
2019-03-16T00:34:03.412Z,4.83
2019-03-16T00:35:03.400Z,4.75
2019-03-16T00:36:03.400Z,4.76
2019-03-16T00:37:03.367Z,4.72
2019-03-16T00:38:03.417Z,4.74
2019-03-16T00:39:03.348Z,4.75
2019-03-16T00:40:03.318Z,4.79
2019-03-16T00:41:03.052Z,4.83
2019-03-16T00:42:03.352Z,4.79
2019-03-16T00:43:03.271Z,4.76
2019-03-16T00:44:03.257Z,4.69
2019-03-16T00:45:03.241Z,4.79
2019-03-16T00:46:03.227Z,4.79
2019-03-16T00:47:03.222Z,4.79
2019-03-16T00:48:03.198Z,4.83
2019-03-16T00:49:02.933Z,4.78
2019-03-16T00:50:03.176Z,4.72
2019-03-16T00:51:02.916Z,4.74
2019-03-16T00:52:03.157Z,4.84
2019-03-16T00:53:03.201Z,4.74
2019-03-16T00:54:03.101Z,4.71
2019-03-16T00:55:03.087Z,4.78
2019-03-16T00:56:03.078Z,4.78
2019-03-16T00:57:03.057Z,4.84
2019-03-16T00:58:02.793Z,4.76
2019-03-16T00:59:02.779Z,4.84
2019-03-16T01:00:03.009Z,4.76
2019-03-16T01:01:02.997Z,4.78
2019-03-16T01:02:02.975Z,4.78
2019-03-16T01:03:02.469Z,4.83
2019-03-16T01:04:02.943Z,4.69
2019-03-16T01:05:02.928Z,4.75
2019-03-16T01:06:02.920Z,4.78
2019-03-16T01:07:02.913Z,4.72
2019-03-16T01:08:02.883Z,4.72
2019-03-16T01:09:02.873Z,4.79
2019-03-16T01:10:02.955Z,4.75
2019-03-16T01:11:02.849Z,4.75
2019-03-16T01:12:02.576Z,4.72
2019-03-16T01:13:02.832Z,4.69
2019-03-16T01:14:02.803Z,4.69
2019-03-16T01:15:02.955Z,4.75
2019-03-16T01:16:02.508Z,4.69
2019-03-16T01:17:02.749Z,4.71
2019-03-16T01:18:02.723Z,4.68
2019-03-16T01:19:02.709Z,4.72
2019-03-16T01:20:02.808Z,4.65
2019-03-16T01:21:02.678Z,4.64
2019-03-16T01:22:02.697Z,4.68
2019-03-16T01:23:02.647Z,4.66
2019-03-16T01:24:02.400Z,4.71
2019-03-16T01:25:02.789Z,4.69
2019-03-16T01:26:02.602Z,4.69
2019-03-16T01:27:02.335Z,4.68
2019-03-16T01:28:02.570Z,4.65
2019-03-16T01:29:02.555Z,4.64
2019-03-16T01:30:02.711Z,4.66
2019-03-16T01:31:02.527Z,4.76
2019-03-16T01:32:02.509Z,4.71
2019-03-16T01:33:02.493Z,4.74
2019-03-16T01:34:02.479Z,4.65
2019-03-16T01:35:02.465Z,4.74
2019-03-16T01:36:02.552Z,4.66
2019-03-16T01:37:02.429Z,4.66
2019-03-16T01:38:02.445Z,4.68
2019-03-16T01:39:02.402Z,4.68
2019-03-16T01:40:02.378Z,4.68
2019-03-16T01:41:02.367Z,4.64
2019-03-16T01:42:02.351Z,4.69
2019-03-16T01:43:02.333Z,4.61
2019-03-16T01:44:02.329Z,4.71
2019-03-16T01:45:02.300Z,4.66
2019-03-16T01:46:02.318Z,4.64
2019-03-16T01:47:02.280Z,4.66
2019-03-16T01:48:02.266Z,4.6
2019-03-16T01:49:02.240Z,4.61
2019-03-16T01:50:01.979Z,4.66
2019-03-16T01:51:01.965Z,4.58
2019-03-16T01:52:02.199Z,4.64
2019-03-16T01:53:02.174Z,4.61
2019-03-16T01:54:02.181Z,4.6
2019-03-16T01:55:02.146Z,4.58
2019-03-16T01:56:02.128Z,4.64
2019-03-16T01:57:02.117Z,4.65
2019-03-16T01:58:02.093Z,4.57
2019-03-16T01:59:02.085Z,4.64
2019-03-16T02:00:02.062Z,4.6
2019-03-16T02:01:02.057Z,4.64
2019-03-16T02:02:02.034Z,4.64
2019-03-16T02:03:02.023Z,4.58
2019-03-16T02:04:02.002Z,4.66
2019-03-16T02:05:02.002Z,4.61
2019-03-16T02:06:02.045Z,4.6
2019-03-16T02:07:01.708Z,4.64
2019-03-16T02:08:01.953Z,4.65
2019-03-16T02:09:01.932Z,4.64
2019-03-16T02:10:01.663Z,4.64
2019-03-16T02:11:01.892Z,4.6
2019-03-16T02:12:05.263Z,4.57
2019-03-16T02:13:01.618Z,4.46
2019-03-16T02:14:01.846Z,4.5
2019-03-16T02:15:01.834Z,4.53
2019-03-16T02:16:15.010Z,4.46
2019-03-16T02:17:01.800Z,4.44
2019-03-16T02:18:01.788Z,4.5
2019-03-16T02:19:01.771Z,4.61
2019-03-16T02:20:01.757Z,4.5
2019-03-16T02:21:01.750Z,4.53
2019-03-16T02:22:01.725Z,4.6
2019-03-16T02:23:01.710Z,4.58
2019-03-16T02:24:01.455Z,4.51
2019-03-16T02:25:01.677Z,4.57
2019-03-16T02:26:01.658Z,4.6
2019-03-16T02:27:01.646Z,4.48
2019-03-16T02:28:01.627Z,4.58
2019-03-16T02:29:01.611Z,4.64
2019-03-16T02:30:01.599Z,4.61
2019-03-16T02:31:01.347Z,4.64
2019-03-16T02:32:01.346Z,4.64
2019-03-16T02:33:17.064Z,4.65
2019-03-16T02:34:01.536Z,4.6
2019-03-16T02:35:01.537Z,4.61
2019-03-16T02:36:01.510Z,4.57
2019-03-16T02:37:01.493Z,4.58
2019-03-16T02:38:01.486Z,4.61
2019-03-16T02:39:01.469Z,4.66
2019-03-16T02:40:01.452Z,4.61
2019-03-16T02:41:01.443Z,4.65
2019-03-16T02:42:01.421Z,4.64
2019-03-16T02:43:01.413Z,4.6
2019-03-16T02:44:01.406Z,4.58
2019-03-16T02:45:01.470Z,4.58
2019-03-16T02:46:01.104Z,4.6
2019-03-16T02:47:01.350Z,4.64
2019-03-16T02:48:01.326Z,4.57
2019-03-16T02:49:01.307Z,4.5
2019-03-16T02:50:01.294Z,4.58
2019-03-16T02:51:01.309Z,4.57
2019-03-16T02:52:01.260Z,4.61
2019-03-16T02:53:01.266Z,4.46
2019-03-16T02:54:01.248Z,4.6
2019-03-16T02:55:01.230Z,4.56
2019-03-16T02:56:01.272Z,4.46
2019-03-16T02:57:01.189Z,4.58
2019-03-16T02:58:00.929Z,4.54
2019-03-16T02:59:01.167Z,4.51
2019-03-16T03:00:01.137Z,4.51
2019-03-16T03:01:01.218Z,4.53
2019-03-16T03:02:01.112Z,4.56
2019-03-16T03:03:01.086Z,4.54
2019-03-16T03:04:01.074Z,4.58
2019-03-16T03:05:01.060Z,4.46
2019-03-16T03:06:01.052Z,4.5
2019-03-16T03:07:01.029Z,4.56
2019-03-16T03:08:01.019Z,4.54
2019-03-16T03:09:00.994Z,4.46
2019-03-16T03:10:01.074Z,4.51
2019-03-16T03:11:01.028Z,4.48
2019-03-16T03:12:00.952Z,4.47
2019-03-16T03:13:00.933Z,4.46
2019-03-16T03:14:00.910Z,4.46
2019-03-16T03:15:00.895Z,4.46
2019-03-16T03:16:00.907Z,4.47
2019-03-16T03:17:00.892Z,4.4
2019-03-16T03:18:00.865Z,4.42
2019-03-16T03:19:00.836Z,4.42
2019-03-16T03:20:00.869Z,4.39
2019-03-16T03:21:00.550Z,4.4
2019-03-16T03:22:00.784Z,4.4
2019-03-16T03:23:00.775Z,4.4
2019-03-16T03:24:00.769Z,4.35
2019-03-16T03:25:00.730Z,4.4
2019-03-16T03:26:00.732Z,4.32
2019-03-16T03:27:00.707Z,4.4
2019-03-16T03:28:00.684Z,4.32
2019-03-16T03:29:00.685Z,4.36
2019-03-16T03:30:02.395Z,4.36
2019-03-16T03:31:00.776Z,4.4
2019-03-16T03:32:00.721Z,4.36
2019-03-16T03:33:00.686Z,4.36
2019-03-16T03:34:06.769Z,4.29
2019-03-16T03:35:01.056Z,4.32
2019-03-16T03:36:00.554Z,4.38
2019-03-16T03:37:00.545Z,4.38
2019-03-16T03:38:00.527Z,4.33
2019-03-16T03:39:00.513Z,4.33
2019-03-16T03:40:00.496Z,4.26
2019-03-16T03:41:04.253Z,4.28
2019-03-16T03:42:00.471Z,4.32
2019-03-16T03:43:00.463Z,4.3
2019-03-16T03:44:00.439Z,4.29
2019-03-16T03:45:00.416Z,4.3
2019-03-16T03:46:00.161Z,4.36
2019-03-16T03:47:00.390Z,4.32
2019-03-16T03:48:00.390Z,4.26
2019-03-16T03:49:00.358Z,4.35
2019-03-16T03:50:00.560Z,4.26
2019-03-16T03:51:00.319Z,4.35
2019-03-16T03:52:00.054Z,4.32
2019-03-16T03:53:00.305Z,4.3
2019-03-16T03:54:00.271Z,4.28
2019-03-16T03:55:00.018Z,4.26
2019-03-16T03:56:00.236Z,4.21
2019-03-16T03:56:59.984Z,4.3
2019-03-16T03:58:00.242Z,4.2
2019-03-16T03:59:00.191Z,4.32
2019-03-16T03:59:59.951Z,4.35
2019-03-16T04:01:00.181Z,4.35
2019-03-16T04:02:00.147Z,4.15
2019-03-16T04:03:00.137Z,4.26
2019-03-16T04:04:17.818Z,4.15
2019-03-16T04:05:00.135Z,4.24
2019-03-16T04:06:00.072Z,4.29
2019-03-16T04:07:00.066Z,4.3
2019-03-16T04:08:00.047Z,4.26
2019-03-16T04:09:00.046Z,4.29
2019-03-16T04:10:00.019Z,4.2
2019-03-16T04:11:00.008Z,4.29
2019-03-16T04:11:59.758Z,4.26
2019-03-16T04:13:00.010Z,4.26
2019-03-16T04:13:59.952Z,4.15
2019-03-16T04:14:59.944Z,4.32
2019-03-16T04:15:59.671Z,4.21
2019-03-16T04:16:59.941Z,4.2
2019-03-16T04:17:59.884Z,4.26
2019-03-16T04:18:59.880Z,4.17
2019-03-16T04:19:59.860Z,4.24
2019-03-16T04:20:59.836Z,4.3
2019-03-16T04:21:59.836Z,4.21
2019-03-16T04:22:59.807Z,4.15
2019-03-16T04:23:59.787Z,4.18
2019-03-16T04:24:59.782Z,4.21
2019-03-16T04:25:59.805Z,4.18
2019-03-16T04:27:14.501Z,4.18
2019-03-16T04:27:59.728Z,4.14
2019-03-16T04:28:59.470Z,4.2
2019-03-16T04:29:59.691Z,4.18
2019-03-16T04:30:59.678Z,4.2
2019-03-16T04:31:59.663Z,4.14
2019-03-16T04:32:59.641Z,4.21
2019-03-16T04:33:59.626Z,4.2
2019-03-16T04:34:59.612Z,4.14
2019-03-16T04:35:59.351Z,4.21
2019-03-16T04:36:59.573Z,4.21
2019-03-16T04:37:59.577Z,4.18
2019-03-16T04:38:59.304Z,4.2
2019-03-16T04:39:59.541Z,4.18
2019-03-16T04:40:59.514Z,4.2
2019-03-16T04:41:59.496Z,4.22
2019-03-16T04:42:59.489Z,4.2
2019-03-16T04:43:59.226Z,4.28
2019-03-16T04:44:59.457Z,4.28
2019-03-16T04:45:58.939Z,4.14
2019-03-16T04:46:59.414Z,4.26
2019-03-16T04:47:59.401Z,4.17
2019-03-16T04:48:59.138Z,4.21
2019-03-16T04:49:59.368Z,4.29
2019-03-16T04:50:59.355Z,4.18
2019-03-16T04:51:59.338Z,4.21
2019-03-16T04:52:59.324Z,4.2
2019-03-16T04:53:59.310Z,4.24
2019-03-16T04:54:59.298Z,4.18
2019-03-16T04:55:59.284Z,4.24
2019-03-16T04:56:59.260Z,4.28
2019-03-16T04:57:59.244Z,4.15
2019-03-16T04:58:58.983Z,4.17
2019-03-16T04:59:59.208Z,4.12
2019-03-16T05:00:59.199Z,4.11
2019-03-16T05:01:59.185Z,4.18
2019-03-16T05:02:59.161Z,4.18
2019-03-16T05:03:59.154Z,4.1
2019-03-16T05:04:59.128Z,4.17
2019-03-16T05:05:58.877Z,4.17
2019-03-16T05:06:58.853Z,4.12
2019-03-16T05:07:59.088Z,4.14
2019-03-16T05:08:59.065Z,4.18
2019-03-16T05:09:59.050Z,4.14
2019-03-16T05:10:59.042Z,4.1
2019-03-16T05:11:59.023Z,4.12
2019-03-16T05:12:58.997Z,4.1
2019-03-16T05:13:58.986Z,4.1
2019-03-16T05:14:58.972Z,4.11
2019-03-16T05:15:58.962Z,4.03
2019-03-16T05:16:58.934Z,4.03
2019-03-16T05:17:58.924Z,4.04
2019-03-16T05:18:58.905Z,4.07
2019-03-16T05:19:58.901Z,4.07
2019-03-16T05:20:58.624Z,3.93
2019-03-16T05:21:58.611Z,4.07
2019-03-16T05:22:58.837Z,4
2019-03-16T05:23:58.820Z,4
2019-03-16T05:24:58.805Z,4.04
2019-03-16T05:25:58.538Z,3.92
2019-03-16T05:26:58.281Z,4
2019-03-16T05:27:58.758Z,4.04
2019-03-16T05:28:58.753Z,3.94
2019-03-16T05:29:58.723Z,4.03
2019-03-16T05:30:58.703Z,3.99
2019-03-16T05:31:58.445Z,3.97
2019-03-16T05:32:58.673Z,3.94
2019-03-16T05:33:58.661Z,3.93
2019-03-16T05:35:01.514Z,3.86
2019-03-16T05:35:58.375Z,3.99
2019-03-16T05:37:00.908Z,3.96
2019-03-16T05:37:58.596Z,3.99
2019-03-16T05:38:58.575Z,3.86
2019-03-16T05:39:58.564Z,3.94
2019-03-16T05:40:58.398Z,3.89
2019-03-16T05:41:58.529Z,3.85
2019-03-16T05:42:58.508Z,3.9
2019-03-16T05:43:58.494Z,3.94
2019-03-16T05:44:58.474Z,3.85
2019-03-16T05:45:58.458Z,3.89
2019-03-16T05:46:58.195Z,3.81
2019-03-16T05:47:58.426Z,3.85
2019-03-16T05:48:58.410Z,3.89
2019-03-16T05:49:58.146Z,3.82
2019-03-16T05:50:59.946Z,3.89
2019-03-16T05:51:58.359Z,3.79
2019-03-16T05:52:58.341Z,3.84
2019-03-16T05:53:58.337Z,3.82
2019-03-16T05:54:58.061Z,3.85
2019-03-16T05:55:58.304Z,3.78
2019-03-16T05:56:58.277Z,3.82
2019-03-16T05:57:58.012Z,3.9
2019-03-16T05:58:58.255Z,3.84
2019-03-16T05:59:58.231Z,3.89
2019-03-16T06:00:58.221Z,3.84
2019-03-16T06:01:58.218Z,3.86
2019-03-16T06:02:58.179Z,3.85
2019-03-16T06:03:58.188Z,3.85
2019-03-16T06:05:12.117Z,3.9
2019-03-16T06:05:58.134Z,3.93
2019-03-16T06:06:58.121Z,3.97
2019-03-16T06:07:58.094Z,3.92
2019-03-16T06:08:58.086Z,3.82
2019-03-16T06:09:58.065Z,3.96
2019-03-16T06:10:57.800Z,3.96
2019-03-16T06:11:57.784Z,3.97
2019-03-16T06:12:58.019Z,3.9
2019-03-16T06:13:57.998Z,3.92
2019-03-16T06:14:57.982Z,4
2019-03-16T06:15:57.966Z,3.96
2019-03-16T06:16:57.948Z,3.92
2019-03-16T06:17:57.937Z,3.96
2019-03-16T06:18:57.916Z,3.86
2019-03-16T06:19:57.902Z,3.94
2019-03-16T06:20:57.888Z,3.93
2019-03-16T06:21:57.622Z,3.94
2019-03-16T06:22:57.597Z,3.97
2019-03-16T06:23:57.588Z,3.92
2019-03-16T06:24:57.819Z,3.99
2019-03-16T06:25:57.807Z,3.96
2019-03-16T06:26:57.537Z,3.99
2019-03-16T06:27:57.527Z,3.96
2019-03-16T06:28:57.750Z,3.94
2019-03-16T06:29:57.491Z,3.99
2019-03-16T06:30:57.719Z,4.1
2019-03-16T06:31:57.702Z,3.96
2019-03-16T06:32:57.440Z,3.96
2019-03-16T06:33:57.676Z,4.02
2019-03-16T06:34:57.409Z,3.93
2019-03-16T06:35:57.637Z,4
2019-03-16T06:36:57.371Z,4.08
2019-03-16T06:37:57.606Z,3.94
2019-03-16T06:38:57.339Z,3.99
2019-03-16T06:39:57.570Z,3.97
2019-03-16T06:40:57.562Z,3.96
2019-03-16T06:41:57.297Z,4.1
2019-03-16T06:42:57.528Z,4.12
2019-03-16T06:43:57.591Z,4.03
2019-03-16T06:44:57.494Z,4.1
2019-03-16T06:45:57.579Z,4.14
2019-03-16T06:46:57.216Z,4.17
2019-03-16T06:47:59.368Z,4.2
2019-03-16T06:48:57.424Z,4.14
2019-03-16T06:49:57.418Z,4.11
2019-03-16T06:50:57.216Z,4.2
2019-03-16T06:51:57.385Z,4.14
2019-03-16T06:52:57.116Z,4.12
2019-03-16T06:53:57.103Z,4.08
2019-03-16T06:54:57.330Z,4.15
2019-03-16T06:55:57.309Z,4.12
2019-03-16T06:56:57.297Z,4.1
2019-03-16T06:57:57.030Z,4.15
2019-03-16T06:59:00.799Z,4.15
2019-03-16T06:59:57.270Z,4.15
2019-03-16T07:00:57.321Z,4.17
2019-03-16T07:01:57.212Z,4.22
2019-03-16T07:02:57.297Z,4.18
2019-03-16T07:03:57.185Z,4.21
2019-03-16T07:04:57.166Z,4.15
2019-03-16T07:05:57.150Z,4.28
2019-03-16T07:06:56.887Z,4.18
2019-03-16T07:07:56.884Z,4.26
2019-03-16T07:08:57.109Z,4.17
2019-03-16T07:09:57.091Z,4.24
2019-03-16T07:10:57.076Z,4.24
2019-03-16T07:11:57.053Z,4.18
2019-03-16T07:12:56.791Z,4.22
2019-03-16T07:13:57.022Z,4.2
2019-03-16T07:14:57.011Z,4.2
2019-03-16T07:15:56.995Z,4.36
2019-03-16T07:17:06.491Z,4.3
2019-03-16T07:17:56.962Z,4.36
2019-03-16T07:19:03.715Z,4.28
2019-03-16T07:19:56.926Z,4.28
2019-03-16T07:20:56.926Z,4.28
2019-03-16T07:21:56.896Z,4.29
2019-03-16T07:22:56.384Z,4.26
2019-03-16T07:23:56.887Z,4.39
2019-03-16T07:24:56.599Z,4.33
2019-03-16T07:25:56.836Z,4.26
2019-03-16T07:26:56.564Z,4.22
2019-03-16T07:27:56.801Z,4.29
2019-03-16T07:28:56.532Z,4.42
2019-03-16T07:29:56.520Z,4.3
2019-03-16T07:30:56.504Z,4.3
2019-03-16T07:31:56.743Z,4.24
2019-03-16T07:32:56.718Z,4.39
2019-03-16T07:33:56.458Z,4.28
2019-03-16T07:34:56.686Z,4.33
2019-03-16T07:35:56.668Z,4.38
2019-03-16T07:36:56.663Z,4.39
2019-03-16T07:37:56.636Z,4.39
2019-03-16T07:38:56.629Z,4.4
2019-03-16T07:39:56.604Z,4.47
2019-03-16T07:40:56.588Z,4.51
2019-03-16T07:41:56.584Z,4.48
2019-03-16T07:42:56.562Z,4.53
2019-03-16T07:43:56.632Z,4.48
2019-03-16T07:45:09.905Z,4.47
2019-03-16T07:45:56.518Z,4.46
2019-03-16T07:46:56.524Z,4.53
2019-03-16T07:47:56.232Z,4.44
2019-03-16T07:48:56.462Z,4.61
2019-03-16T07:49:56.451Z,4.5
2019-03-16T07:50:56.438Z,4.48
2019-03-16T07:51:56.470Z,4.51
2019-03-16T07:52:56.408Z,4.61
2019-03-16T07:53:56.137Z,4.61
2019-03-16T07:54:56.376Z,4.65
2019-03-16T07:55:56.111Z,4.75
2019-03-16T07:56:56.347Z,4.65
2019-03-16T07:57:56.082Z,4.64
2019-03-16T07:58:56.060Z,4.68
2019-03-16T07:59:56.303Z,4.68
2019-03-16T08:00:56.279Z,4.66
2019-03-16T08:01:56.262Z,4.71
2019-03-16T08:02:56.247Z,4.66
2019-03-16T08:03:55.991Z,4.71
2019-03-16T08:04:55.971Z,4.65
2019-03-16T08:05:56.199Z,4.66
2019-03-16T08:06:56.209Z,4.64
2019-03-16T08:07:56.169Z,4.68
2019-03-16T08:08:56.190Z,4.69
2019-03-16T08:09:55.653Z,4.65
2019-03-16T08:10:56.126Z,4.75
2019-03-16T08:11:56.151Z,4.79
2019-03-16T08:12:55.602Z,4.83
2019-03-16T08:13:56.125Z,4.78
2019-03-16T08:14:56.066Z,4.91
2019-03-16T08:15:56.064Z,4.84
2019-03-16T08:16:55.784Z,4.84
2019-03-16T08:17:56.015Z,4.85
2019-03-16T08:18:56.003Z,4.84
2019-03-16T08:19:55.986Z,4.87
2019-03-16T08:20:55.725Z,4.76
2019-03-16T08:21:55.957Z,4.76
2019-03-16T08:22:55.938Z,4.83
2019-03-16T08:23:58.595Z,4.85
2019-03-16T08:24:55.916Z,4.97
2019-03-16T08:25:55.897Z,4.9
2019-03-16T08:26:55.884Z,4.91
2019-03-16T08:27:59.323Z,4.92
2019-03-16T08:28:58.926Z,4.88
2019-03-16T08:29:55.594Z,4.91
2019-03-16T08:30:56.774Z,4.91
2019-03-16T08:31:55.809Z,4.92
2019-03-16T08:32:55.539Z,5
2019-03-16T08:33:55.814Z,4.94
2019-03-16T08:34:55.765Z,4.97
2019-03-16T08:35:55.740Z,4.97
2019-03-16T08:36:55.735Z,4.98
2019-03-16T08:37:55.466Z,4.91
2019-03-16T08:38:55.698Z,4.97
2019-03-16T08:39:55.683Z,5.02
2019-03-16T08:40:55.417Z,5.05
2019-03-16T08:41:55.401Z,5.05
2019-03-16T08:42:56.372Z,5.03
2019-03-16T08:43:55.373Z,5.06
2019-03-16T08:44:55.604Z,5
2019-03-16T08:45:55.597Z,5.09
2019-03-16T08:46:55.570Z,5.03
2019-03-16T08:47:55.313Z,5.09
2019-03-16T08:48:55.545Z,5.09
2019-03-16T08:49:55.289Z,5.18
2019-03-16T08:50:55.517Z,5.16
2019-03-16T08:51:55.498Z,5.18
2019-03-16T08:52:58.575Z,5.18
2019-03-16T08:53:55.470Z,5.12
2019-03-16T08:54:55.452Z,5.08
2019-03-16T08:55:55.433Z,5.05
2019-03-16T08:56:55.180Z,4.94
2019-03-16T08:58:07.731Z,4.92
2019-03-16T08:58:55.388Z,4.9
2019-03-16T08:59:55.379Z,4.94
2019-03-16T09:00:55.362Z,4.95
2019-03-16T09:01:55.349Z,4.91
2019-03-16T09:02:55.330Z,4.92
2019-03-16T09:03:55.313Z,4.95
2019-03-16T09:04:55.058Z,4.91
2019-03-16T09:05:55.037Z,4.91
2019-03-16T09:06:57.543Z,4.94
2019-03-16T09:07:55.252Z,5
2019-03-16T09:08:55.241Z,4.92
2019-03-16T09:09:54.977Z,4.91
2019-03-16T09:10:54.974Z,4.92
2019-03-16T09:11:54.943Z,4.94
2019-03-16T09:12:59.872Z,4.9
2019-03-16T09:13:55.162Z,4.91
2019-03-16T09:14:55.150Z,5.03
2019-03-16T09:15:55.129Z,5.06
2019-03-16T09:16:55.120Z,5.15
2019-03-16T09:17:55.100Z,5.24
2019-03-16T09:18:55.094Z,5.16
2019-03-16T09:19:55.146Z,5.21
2019-03-16T09:20:54.820Z,5.2
2019-03-16T09:21:55.038Z,5.18
2019-03-16T09:22:55.096Z,5.23
2019-03-16T09:23:55.020Z,5.27
2019-03-16T09:24:55.010Z,5.23
2019-03-16T09:25:54.996Z,5.3
2019-03-16T09:26:54.724Z,5.33
2019-03-16T09:27:54.956Z,5.42
2019-03-16T09:29:16.523Z,5.44
2019-03-16T09:29:54.926Z,5.39
2019-03-16T09:30:56.477Z,5.42
2019-03-16T09:31:54.891Z,5.37
2019-03-16T09:32:54.884Z,5.42
2019-03-16T09:33:54.868Z,5.44
2019-03-16T09:34:54.867Z,5.44
2019-03-16T09:35:54.837Z,5.48
2019-03-16T09:36:54.815Z,5.45
2019-03-16T09:37:54.806Z,5.37
2019-03-16T09:38:54.794Z,5.46
2019-03-16T09:39:54.776Z,5.39
2019-03-16T09:40:54.759Z,5.39
2019-03-16T09:41:54.745Z,5.34
2019-03-16T09:42:54.734Z,5.24
2019-03-16T09:43:54.718Z,5.24
2019-03-16T09:44:54.735Z,5.39
2019-03-16T09:45:54.700Z,5.39
2019-03-16T09:46:54.678Z,5.44
2019-03-16T09:47:54.672Z,5.36
2019-03-16T09:48:54.399Z,5.44
2019-03-16T09:49:54.638Z,5.39
2019-03-16T09:50:54.618Z,5.37
2019-03-16T09:51:54.609Z,5.37
2019-03-16T09:52:54.583Z,5.44
2019-03-16T09:53:54.576Z,5.46
2019-03-16T09:54:54.328Z,5.42
2019-03-16T09:55:54.294Z,5.39
2019-03-16T09:57:05.091Z,5.31
2019-03-16T09:57:54.507Z,5.36
2019-03-16T09:58:54.244Z,5.36
2019-03-16T09:59:54.476Z,5.34
2019-03-16T10:00:54.459Z,5.42
2019-03-16T10:01:54.450Z,5.39
2019-03-16T10:02:54.432Z,5.42
2019-03-16T10:03:54.435Z,5.44
2019-03-16T10:04:54.426Z,5.41
2019-03-16T10:05:54.385Z,5.46
2019-03-16T10:06:54.370Z,5.54
2019-03-16T10:07:54.120Z,5.49
2019-03-16T10:08:54.345Z,5.59
2019-03-16T10:09:54.336Z,5.64
2019-03-16T10:10:54.063Z,5.75
2019-03-16T10:11:54.844Z,5.77
2019-03-16T10:12:54.826Z,5.77
2019-03-16T10:13:54.821Z,5.82
2019-03-16T10:14:54.556Z,5.95
2019-03-16T10:15:54.535Z,5.89
2019-03-16T10:16:54.764Z,6.03
2019-03-16T10:17:54.753Z,6.06
2019-03-16T10:18:54.740Z,6.06
2019-03-16T10:19:54.812Z,6.14
2019-03-16T10:20:54.705Z,6.21
2019-03-16T10:21:54.700Z,6.28
2019-03-16T10:22:54.191Z,6.26
2019-03-16T10:23:54.666Z,6.24
2019-03-16T10:24:54.656Z,6.26
2019-03-16T10:25:54.410Z,6.29
2019-03-16T10:26:54.626Z,6.37
2019-03-16T10:27:54.614Z,6.28
2019-03-16T10:28:54.598Z,6.37
2019-03-16T10:29:54.587Z,6.21
2019-03-16T10:30:54.569Z,6.37
2019-03-16T10:31:54.553Z,6.39
2019-03-16T10:32:54.295Z,6.4
2019-03-16T10:33:54.278Z,6.36
2019-03-16T10:34:54.513Z,6.29
2019-03-16T10:35:54.494Z,6.33
2019-03-16T10:36:54.506Z,6.28
2019-03-16T10:37:54.466Z,6.21
2019-03-16T10:38:54.205Z,6.14
2019-03-16T10:39:54.438Z,6.24
2019-03-16T10:40:54.183Z,6.09
2019-03-16T10:41:54.408Z,6.2
2019-03-16T10:42:54.404Z,6.2
2019-03-16T10:43:54.378Z,6.18
2019-03-16T10:44:54.374Z,6.18
2019-03-16T10:45:54.357Z,6.21
2019-03-16T10:46:54.342Z,6.21
2019-03-16T10:47:54.324Z,6.28
2019-03-16T10:48:54.319Z,6.2
2019-03-16T10:49:54.295Z,6.29
2019-03-16T10:50:54.287Z,6.28
2019-03-16T10:51:54.033Z,6.29
2019-03-16T10:52:54.262Z,6.34
2019-03-16T10:53:53.998Z,6.37
2019-03-16T10:54:54.233Z,6.42
2019-03-16T10:55:54.211Z,6.51
2019-03-16T10:56:53.953Z,6.55
2019-03-16T10:57:53.692Z,6.57
2019-03-16T10:59:01.513Z,6.64
2019-03-16T10:59:54.157Z,6.67
2019-03-16T11:00:54.144Z,6.57
2019-03-16T11:01:54.135Z,6.54
2019-03-16T11:02:53.867Z,6.62
2019-03-16T11:03:54.098Z,6.67
2019-03-16T11:04:54.091Z,6.73
2019-03-16T11:05:54.078Z,6.76
2019-03-16T11:06:54.062Z,6.73
2019-03-16T11:07:54.056Z,6.82
2019-03-16T11:08:53.780Z,6.88
2019-03-16T11:09:54.018Z,6.93
2019-03-16T11:10:54.006Z,6.9
2019-03-16T11:11:53.994Z,7
2019-03-16T11:12:53.983Z,7.01
2019-03-16T11:13:53.969Z,7.08
2019-03-16T11:14:53.949Z,7.12
2019-03-16T11:15:53.938Z,7.15
2019-03-16T11:16:53.922Z,7.11
2019-03-16T11:17:53.913Z,7.16
2019-03-16T11:18:53.914Z,7.22
2019-03-16T11:19:53.637Z,7.26
2019-03-16T11:20:53.881Z,7.21
2019-03-16T11:21:55.581Z,7.22
2019-03-16T11:22:53.847Z,7.37
2019-03-16T11:23:53.826Z,7.3
2019-03-16T11:24:53.813Z,7.31
2019-03-16T11:25:53.796Z,7.31
2019-03-16T11:26:53.782Z,7.37
2019-03-16T11:27:53.772Z,7.4
2019-03-16T11:28:53.778Z,7.51
2019-03-16T11:29:53.507Z,7.48
2019-03-16T11:30:53.729Z,7.54
2019-03-16T11:31:53.740Z,7.52
2019-03-16T11:32:53.719Z,7.61
2019-03-16T11:33:53.449Z,7.63
2019-03-16T11:34:53.435Z,7.64
2019-03-16T11:35:53.666Z,7.64
2019-03-16T11:36:53.410Z,7.73
2019-03-16T11:37:53.399Z,7.75
2019-03-16T11:38:53.381Z,7.77
2019-03-16T11:39:53.382Z,7.89
2019-03-16T11:40:53.606Z,7.91
2019-03-16T11:41:53.589Z,7.98
2019-03-16T11:42:53.334Z,8.07
2019-03-16T11:43:53.564Z,8.16
2019-03-16T11:44:53.334Z,8.07
2019-03-16T11:45:53.293Z,8.32
2019-03-16T11:46:53.530Z,8.25
2019-03-16T11:47:53.522Z,8.26
2019-03-16T11:48:53.515Z,8.34
2019-03-16T11:49:53.650Z,8.44
2019-03-16T11:50:53.761Z,8.44
2019-03-16T11:51:53.462Z,8.5
2019-03-16T11:52:53.453Z,8.5
2019-03-16T11:53:53.438Z,8.57
2019-03-16T11:54:53.182Z,8.62
2019-03-16T11:55:54.516Z,8.61
2019-03-16T11:56:53.157Z,8.74
2019-03-16T11:57:53.393Z,8.71
2019-03-16T11:58:53.376Z,8.89
2019-03-16T11:59:53.368Z,8.83
2019-03-16T12:00:53.356Z,8.8
2019-03-16T12:02:04.794Z,8.83
2019-03-16T12:02:55.412Z,8.86
2019-03-16T12:03:53.316Z,8.76
2019-03-16T12:04:53.305Z,8.71
2019-03-16T12:05:53.295Z,8.67
2019-03-16T12:06:53.279Z,8.65
2019-03-16T12:07:53.271Z,8.57
2019-03-16T12:08:53.270Z,8.79
2019-03-16T12:09:53.256Z,8.85
2019-03-16T12:10:53.235Z,8.83
2019-03-16T12:11:52.976Z,9.01
2019-03-16T12:12:53.208Z,8.98
2019-03-16T12:13:53.205Z,8.95
2019-03-16T12:14:53.186Z,8.92
2019-03-16T12:15:53.176Z,8.9
2019-03-16T12:16:53.159Z,8.89
2019-03-16T12:17:53.145Z,9
2019-03-16T12:18:53.133Z,8.97
2019-03-16T12:19:53.130Z,9.01
2019-03-16T12:20:53.144Z,8.92
2019-03-16T12:21:53.175Z,8.83
2019-03-16T12:22:53.093Z,8.87
2019-03-16T12:23:53.091Z,8.76
2019-03-16T12:24:53.181Z,8.68
2019-03-16T12:25:52.808Z,8.67
2019-03-16T12:26:53.056Z,8.68
2019-03-16T12:27:53.056Z,8.61
2019-03-16T12:28:53.017Z,8.58
2019-03-16T12:29:53.014Z,8.49
2019-03-16T12:30:53.002Z,8.42
2019-03-16T12:31:52.992Z,8.43
2019-03-16T12:32:52.728Z,8.31
2019-03-16T12:33:52.960Z,8.35
2019-03-16T12:34:52.960Z,8.32
2019-03-16T12:35:52.935Z,8.36
2019-03-16T12:36:52.922Z,8.31
2019-03-16T12:37:52.911Z,8.36
2019-03-16T12:38:52.947Z,8.36
2019-03-16T12:39:52.889Z,8.31
2019-03-16T12:40:52.873Z,8.32
2019-03-16T12:41:52.634Z,8.26
2019-03-16T12:42:52.862Z,8.24
2019-03-16T12:43:52.840Z,8.24
2019-03-16T12:44:52.824Z,8.22
2019-03-16T12:45:52.815Z,8.35
2019-03-16T12:46:52.805Z,8.29
2019-03-16T12:47:52.808Z,8.31
2019-03-16T12:48:52.835Z,8.26
2019-03-16T12:49:52.772Z,8.21
2019-03-16T12:50:54.365Z,8.35
2019-03-16T12:51:52.799Z,8.36
2019-03-16T12:52:52.496Z,8.36
2019-03-16T12:53:52.717Z,8.4
2019-03-16T12:54:52.707Z,8.43
2019-03-16T12:55:52.692Z,8.47
2019-03-16T12:56:52.680Z,8.47
2019-03-16T12:57:52.846Z,8.49
2019-03-16T12:58:52.513Z,8.54
2019-03-16T12:59:52.396Z,8.54
2019-03-16T13:00:52.633Z,8.62
2019-03-16T13:01:52.718Z,8.69
2019-03-16T13:02:52.612Z,8.67
2019-03-16T13:03:55.233Z,8.64
2019-03-16T13:04:52.591Z,8.64
2019-03-16T13:05:52.321Z,8.61
2019-03-16T13:06:52.304Z,8.6
2019-03-16T13:07:52.562Z,8.5
2019-03-16T13:08:52.595Z,8.49
2019-03-16T13:09:52.518Z,8.49
2019-03-16T13:10:52.507Z,8.49
2019-03-16T13:11:52.501Z,8.29
2019-03-16T13:12:52.483Z,8.34
2019-03-16T13:13:52.467Z,8.28
2019-03-16T13:14:52.477Z,8.31
2019-03-16T13:15:52.515Z,8.17
2019-03-16T13:16:52.434Z,8.24
2019-03-16T13:17:52.423Z,8.24
2019-03-16T13:18:52.406Z,8.24
2019-03-16T13:19:52.390Z,8.21
2019-03-16T13:20:52.385Z,8.19
2019-03-16T13:21:52.119Z,8.17